sensor_id;sensor_type;location;lat;lon;timestamp;temperature;humidity
2391;DHT22;22957;50.824;4.360;2023-07-29T00:01:08;21.40;99.90
2391;DHT22;22957;50.824;4.360;2023-07-29T00:03:34;21.60;99.90
2391;DHT22;22957;50.824;4.360;2023-07-29T00:05:59;21.10;99.90
2391;DHT22;22957;50.824;4.360;2023-07-29T00:08:25;21.30;99.90
2391;DHT22;22957;50.824;4.360;2023-07-29T00:10:50;21.00;99.90
2391;DHT22;22957;50.824;4.360;2023-07-29T00:13:16;20.90;99.90
2391;DHT22;22957;50.824;4.360;2023-07-29T00:15:41;21.00;99.90
2391;DHT22;22957;50.824;4.360;2023-07-29T00:18:07;21.00;99.90
2391;DHT22;22957;50.824;4.360;2023-07-29T00:20:33;21.00;99.90
2391;DHT22;22957;50.824;4.360;2023-07-29T00:22:58;20.90;99.90
2391;DHT22;22957;50.824;4.360;2023-07-29T00:25:24;20.80;99.90
2391;DHT22;22957;50.824;4.360;2023-07-29T00:27:49;20.60;99.90
2391;DHT22;22957;50.824;4.360;2023-07-29T00:30:15;20.80;99.90
2391;DHT22;22957;50.824;4.360;2023-07-29T00:32:41;20.90;99.90
2391;DHT22;22957;50.824;4.360;2023-07-29T00:35:07;20.90;99.90
2391;DHT22;22957;50.824;4.360;2023-07-29T00:37:32;20.60;99.90
2391;DHT22;22957;50.824;4.360;2023-07-29T00:39:58;20.70;99.90
2391;DHT22;22957;50.824;4.360;2023-07-29T00:42:24;20.70;99.90
2391;DHT22;22957;50.824;4.360;2023-07-29T00:44:50;20.50;99.90
2391;DHT22;22957;50.824;4.360;2023-07-29T00:47:16;20.60;99.90
2391;DHT22;22957;50.824;4.360;2023-07-29T00:49:43;20.60;99.90
2391;DHT22;22957;50.824;4.360;2023-07-29T00:52:09;20.70;99.90
2391;DHT22;22957;50.824;4.360;2023-07-29T00:54:40;20.70;99.90
2391;DHT22;22957;50.824;4.360;2023-07-29T00:57:08;20.70;99.90
2391;DHT22;22957;50.824;4.360;2023-07-29T00:59:35;20.60;99.90
2391;DHT22;22957;50.824;4.360;2023-07-29T01:02:02;20.60;99.90
2391;DHT22;22957;50.824;4.360;2023-07-29T01:04:27;20.70;99.90
2391;DHT22;22957;50.824;4.360;2023-07-29T01:07:09;20.70;99.90
2391;DHT22;22957;50.824;4.360;2023-07-29T01:09:48;20.60;99.90
2391;DHT22;22957;50.824;4.360;2023-07-29T01:12:22;20.70;99.90
2391;DHT22;22957;50.824;4.360;2023-07-29T01:17:43;20.60;99.90
2391;DHT22;22957;50.824;4.360;2023-07-29T01:20:14;20.40;99.90
2391;DHT22;22957;50.824;4.360;2023-07-29T01:22:41;20.30;99.90
2391;DHT22;22957;50.824;4.360;2023-07-29T01:25:07;20.30;99.90
2391;DHT22;22957;50.824;4.360;2023-07-29T01:27:33;20.30;99.90
2391;DHT22;22957;50.824;4.360;2023-07-29T01:29:59;20.20;99.90
2391;DHT22;22957;50.824;4.360;2023-07-29T01:32:54;20.10;99.90
2391;DHT22;22957;50.824;4.360;2023-07-29T01:37:59;20.10;99.90
2391;DHT22;22957;50.824;4.360;2023-07-29T01:40:27;20.30;99.90
2391;DHT22;22957;50.824;4.360;2023-07-29T01:42:53;20.20;99.90
2391;DHT22;22957;50.824;4.360;2023-07-29T01:45:21;20.20;99.90
2391;DHT22;22957;50.824;4.360;2023-07-29T01:47:48;20.20;99.90
2391;DHT22;22957;50.824;4.360;2023-07-29T01:50:13;20.10;99.90
2391;DHT22;22957;50.824;4.360;2023-07-29T01:52:39;20.10;99.90
2391;DHT22;22957;50.824;4.360;2023-07-29T01:55:04;19.90;99.90
2391;DHT22;22957;50.824;4.360;2023-07-29T01:57:30;19.80;99.90
2391;DHT22;22957;50.824;4.360;2023-07-29T01:59:56;19.80;99.90
2391;DHT22;22957;50.824;4.360;2023-07-29T02:02:21;19.60;99.90
2391;DHT22;22957;50.824;4.360;2023-07-29T02:04:47;19.70;99.90
2391;DHT22;22957;50.824;4.360;2023-07-29T02:07:17;19.90;99.90
2391;DHT22;22957;50.824;4.360;2023-07-29T02:09:43;20.00;99.90
2391;DHT22;22957;50.824;4.360;2023-07-29T02:12:09;20.10;99.90
2391;DHT22;22957;50.824;4.360;2023-07-29T02:14:34;19.80;99.90
2391;DHT22;22957;50.824;4.360;2023-07-29T02:17:00;19.80;99.90
2391;DHT22;22957;50.824;4.360;2023-07-29T02:19:25;19.90;99.90
2391;DHT22;22957;50.824;4.360;2023-07-29T02:21:51;20.00;99.90
2391;DHT22;22957;50.824;4.360;2023-07-29T02:24:16;20.10;99.90
2391;DHT22;22957;50.824;4.360;2023-07-29T02:26:42;19.90;99.90
2391;DHT22;22957;50.824;4.360;2023-07-29T02:29:07;19.70;99.90
2391;DHT22;22957;50.824;4.360;2023-07-29T02:31:33;19.80;99.90
2391;DHT22;22957;50.824;4.360;2023-07-29T02:34:00;19.70;99.90
2391;DHT22;22957;50.824;4.360;2023-07-29T02:36:25;19.80;99.90
2391;DHT22;22957;50.824;4.360;2023-07-29T02:38:51;19.70;99.90
2391;DHT22;22957;50.824;4.360;2023-07-29T02:41:16;19.90;99.90
2391;DHT22;22957;50.824;4.360;2023-07-29T02:43:43;19.70;99.90
2391;DHT22;22957;50.824;4.360;2023-07-29T02:46:09;19.90;99.90
2391;DHT22;22957;50.824;4.360;2023-07-29T02:48:34;19.80;99.90
2391;DHT22;22957;50.824;4.360;2023-07-29T02:51:00;19.80;99.90
2391;DHT22;22957;50.824;4.360;2023-07-29T02:53:25;19.80;99.90
2391;DHT22;22957;50.824;4.360;2023-07-29T02:55:51;19.90;99.90
2391;DHT22;22957;50.824;4.360;2023-07-29T02:58:16;19.90;99.90
2391;DHT22;22957;50.824;4.360;2023-07-29T03:00:42;20.00;99.90
2391;DHT22;22957;50.824;4.360;2023-07-29T03:03:08;19.80;99.90
2391;DHT22;22957;50.824;4.360;2023-07-29T03:05:35;19.80;99.90
2391;DHT22;22957;50.824;4.360;2023-07-29T03:08:01;19.80;99.90
2391;DHT22;22957;50.824;4.360;2023-07-29T03:10:26;19.80;99.90
2391;DHT22;22957;50.824;4.360;2023-07-29T03:12:55;19.90;99.90
2391;DHT22;22957;50.824;4.360;2023-07-29T03:15:24;19.90;99.90
2391;DHT22;22957;50.824;4.360;2023-07-29T03:17:51;19.70;99.90
2391;DHT22;22957;50.824;4.360;2023-07-29T03:20:16;19.60;99.90
2391;DHT22;22957;50.824;4.360;2023-07-29T03:22:43;19.70;99.90
2391;DHT22;22957;50.824;4.360;2023-07-29T03:25:09;19.60;99.90
2391;DHT22;22957;50.824;4.360;2023-07-29T03:27:35;19.60;99.90
2391;DHT22;22957;50.824;4.360;2023-07-29T03:30:02;19.70;99.90
2391;DHT22;22957;50.824;4.360;2023-07-29T03:32:28;19.70;99.90
2391;DHT22;22957;50.824;4.360;2023-07-29T03:34:54;19.80;99.90
2391;DHT22;22957;50.824;4.360;2023-07-29T03:37:20;19.70;99.90
2391;DHT22;22957;50.824;4.360;2023-07-29T03:39:47;19.70;99.90
2391;DHT22;22957;50.824;4.360;2023-07-29T03:42:12;19.60;99.90
2391;DHT22;22957;50.824;4.360;2023-07-29T03:44:38;19.40;99.90
2391;DHT22;22957;50.824;4.360;2023-07-29T03:47:05;19.60;99.90
2391;DHT22;22957;50.824;4.360;2023-07-29T03:49:31;19.60;99.90
2391;DHT22;22957;50.824;4.360;2023-07-29T03:51:57;19.60;99.90
2391;DHT22;22957;50.824;4.360;2023-07-29T03:54:22;19.60;99.90
2391;DHT22;22957;50.824;4.360;2023-07-29T03:56:48;19.70;99.90
2391;DHT22;22957;50.824;4.360;2023-07-29T03:59:13;19.60;99.90
2391;DHT22;22957;50.824;4.360;2023-07-29T04:01:39;19.40;99.90
2391;DHT22;22957;50.824;4.360;2023-07-29T04:04:05;19.40;99.90
2391;DHT22;22957;50.824;4.360;2023-07-29T04:06:30;19.30;99.90
2391;DHT22;22957;50.824;4.360;2023-07-29T04:08:56;19.30;99.90
2391;DHT22;22957;50.824;4.360;2023-07-29T04:11:22;19.40;99.90
2391;DHT22;22957;50.824;4.360;2023-07-29T04:13:48;19.40;99.90
2391;DHT22;22957;50.824;4.360;2023-07-29T04:16:13;19.70;99.90
2391;DHT22;22957;50.824;4.360;2023-07-29T04:18:39;19.60;99.90
2391;DHT22;22957;50.824;4.360;2023-07-29T04:21:04;19.80;99.90
2391;DHT22;22957;50.824;4.360;2023-07-29T04:23:30;19.60;99.90
2391;DHT22;22957;50.824;4.360;2023-07-29T04:25:55;19.80;99.90
2391;DHT22;22957;50.824;4.360;2023-07-29T04:28:21;19.60;99.90
2391;DHT22;22957;50.824;4.360;2023-07-29T04:30:46;19.70;99.90
2391;DHT22;22957;50.824;4.360;2023-07-29T04:33:12;19.60;99.90
2391;DHT22;22957;50.824;4.360;2023-07-29T04:35:38;19.60;99.90
2391;DHT22;22957;50.824;4.360;2023-07-29T04:38:03;19.80;99.90
2391;DHT22;22957;50.824;4.360;2023-07-29T04:40:29;19.90;99.90
2391;DHT22;22957;50.824;4.360;2023-07-29T04:42:54;19.70;99.90
2391;DHT22;22957;50.824;4.360;2023-07-29T04:45:20;19.80;99.90
2391;DHT22;22957;50.824;4.360;2023-07-29T04:47:45;19.70;99.90
2391;DHT22;22957;50.824;4.360;2023-07-29T04:50:11;19.70;99.90
2391;DHT22;22957;50.824;4.360;2023-07-29T04:52:37;19.60;99.90
2391;DHT22;22957;50.824;4.360;2023-07-29T04:55:02;19.60;99.90
2391;DHT22;22957;50.824;4.360;2023-07-29T04:57:28;19.90;99.90
2391;DHT22;22957;50.824;4.360;2023-07-29T04:59:54;19.70;99.90
2391;DHT22;22957;50.824;4.360;2023-07-29T05:02:20;19.70;99.90
2391;DHT22;22957;50.824;4.360;2023-07-29T05:04:46;19.80;99.90
2391;DHT22;22957;50.824;4.360;2023-07-29T05:07:12;19.90;99.90
2391;DHT22;22957;50.824;4.360;2023-07-29T05:09:37;19.90;99.90
2391;DHT22;22957;50.824;4.360;2023-07-29T05:12:03;19.90;99.90
2391;DHT22;22957;50.824;4.360;2023-07-29T05:14:29;20.10;99.90
2391;DHT22;22957;50.824;4.360;2023-07-29T05:16:54;20.10;99.90
2391;DHT22;22957;50.824;4.360;2023-07-29T05:19:20;20.80;99.90
2391;DHT22;22957;50.824;4.360;2023-07-29T05:21:45;21.10;99.90
2391;DHT22;22957;50.824;4.360;2023-07-29T05:24:11;21.70;99.90
2391;DHT22;22957;50.824;4.360;2023-07-29T05:26:36;22.20;99.90
2391;DHT22;22957;50.824;4.360;2023-07-29T05:29:02;22.60;99.90
2391;DHT22;22957;50.824;4.360;2023-07-29T05:31:29;22.90;99.90
2391;DHT22;22957;50.824;4.360;2023-07-29T05:33:55;22.80;99.90
2391;DHT22;22957;50.824;4.360;2023-07-29T05:36:20;22.50;99.90
2391;DHT22;22957;50.824;4.360;2023-07-29T05:38:46;22.40;99.90
2391;DHT22;22957;50.824;4.360;2023-07-29T05:41:11;22.50;99.90
2391;DHT22;22957;50.824;4.360;2023-07-29T05:43:37;22.80;99.90
2391;DHT22;22957;50.824;4.360;2023-07-29T05:46:03;23.20;99.90
2391;DHT22;22957;50.824;4.360;2023-07-29T05:48:28;23.70;99.90
2391;DHT22;22957;50.824;4.360;2023-07-29T05:50:54;24.00;99.90
2391;DHT22;22957;50.824;4.360;2023-07-29T05:53:19;23.90;99.90
2391;DHT22;22957;50.824;4.360;2023-07-29T05:55:45;24.00;99.90
2391;DHT22;22957;50.824;4.360;2023-07-29T05:58:10;24.50;99.90
2391;DHT22;22957;50.824;4.360;2023-07-29T06:00:36;24.30;99.90
2391;DHT22;22957;50.824;4.360;2023-07-29T06:03:02;24.20;99.90
2391;DHT22;22957;50.824;4.360;2023-07-29T06:05:27;23.80;99.90
2391;DHT22;22957;50.824;4.360;2023-07-29T06:07:53;23.60;99.90
2391;DHT22;22957;50.824;4.360;2023-07-29T06:10:19;23.10;99.90
2391;DHT22;22957;50.824;4.360;2023-07-29T06:12:45;23.10;99.90
2391;DHT22;22957;50.824;4.360;2023-07-29T06:15:11;23.30;99.90
2391;DHT22;22957;50.824;4.360;2023-07-29T06:17:38;23.30;99.90
2391;DHT22;22957;50.824;4.360;2023-07-29T06:20:04;23.10;99.90
2391;DHT22;22957;50.824;4.360;2023-07-29T06:22:29;23.30;99.90
2391;DHT22;22957;50.824;4.360;2023-07-29T06:24:55;23.60;99.90
2391;DHT22;22957;50.824;4.360;2023-07-29T06:27:20;23.70;99.90
2391;DHT22;22957;50.824;4.360;2023-07-29T06:29:46;23.60;99.90
2391;DHT22;22957;50.824;4.360;2023-07-29T06:32:11;23.10;99.90
2391;DHT22;22957;50.824;4.360;2023-07-29T06:34:37;23.60;99.90
2391;DHT22;22957;50.824;4.360;2023-07-29T06:37:03;23.80;99.90
2391;DHT22;22957;50.824;4.360;2023-07-29T06:39:28;23.90;99.90
2391;DHT22;22957;50.824;4.360;2023-07-29T06:41:54;24.20;99.90
2391;DHT22;22957;50.824;4.360;2023-07-29T06:44:19;24.30;99.90
2391;DHT22;22957;50.824;4.360;2023-07-29T06:46:45;24.30;99.90
2391;DHT22;22957;50.824;4.360;2023-07-29T06:49:10;24.60;99.90
2391;DHT22;22957;50.824;4.360;2023-07-29T06:51:36;24.60;99.90
2391;DHT22;22957;50.824;4.360;2023-07-29T06:54:02;24.80;99.90
2391;DHT22;22957;50.824;4.360;2023-07-29T06:56:28;24.10;99.90
2391;DHT22;22957;50.824;4.360;2023-07-29T06:58:54;24.10;99.90
2391;DHT22;22957;50.824;4.360;2023-07-29T07:01:20;23.50;99.90
2391;DHT22;22957;50.824;4.360;2023-07-29T07:03:45;23.50;99.90
2391;DHT22;22957;50.824;4.360;2023-07-29T07:06:11;23.20;99.90
2391;DHT22;22957;50.824;4.360;2023-07-29T07:08:36;23.00;99.90
2391;DHT22;22957;50.824;4.360;2023-07-29T07:11:02;22.80;99.90
2391;DHT22;22957;50.824;4.360;2023-07-29T07:13:28;22.70;99.90
2391;DHT22;22957;50.824;4.360;2023-07-29T07:15:57;22.80;99.90
2391;DHT22;22957;50.824;4.360;2023-07-29T07:18:22;22.70;99.90
2391;DHT22;22957;50.824;4.360;2023-07-29T07:20:49;22.80;99.90
2391;DHT22;22957;50.824;4.360;2023-07-29T07:23:15;22.80;99.90
2391;DHT22;22957;50.824;4.360;2023-07-29T07:25:41;22.80;99.90
2391;DHT22;22957;50.824;4.360;2023-07-29T07:28:08;22.90;99.90
2391;DHT22;22957;50.824;4.360;2023-07-29T07:30:33;22.80;99.90
2391;DHT22;22957;50.824;4.360;2023-07-29T07:32:59;22.90;99.90
2391;DHT22;22957;50.824;4.360;2023-07-29T07:35:24;22.90;99.90
2391;DHT22;22957;50.824;4.360;2023-07-29T07:37:50;23.00;99.90
2391;DHT22;22957;50.824;4.360;2023-07-29T07:40:16;23.00;99.90
2391;DHT22;22957;50.824;4.360;2023-07-29T07:42:41;23.10;99.90
2391;DHT22;22957;50.824;4.360;2023-07-29T07:45:07;22.90;99.90
2391;DHT22;22957;50.824;4.360;2023-07-29T07:47:32;23.00;99.90
2391;DHT22;22957;50.824;4.360;2023-07-29T07:49:58;23.00;99.90
2391;DHT22;22957;50.824;4.360;2023-07-29T07:52:23;22.90;99.90
2391;DHT22;22957;50.824;4.360;2023-07-29T07:54:53;23.10;99.90
2391;DHT22;22957;50.824;4.360;2023-07-29T07:57:21;23.20;99.90
2391;DHT22;22957;50.824;4.360;2023-07-29T07:59:46;23.00;99.90
2391;DHT22;22957;50.824;4.360;2023-07-29T08:02:12;23.30;99.90
2391;DHT22;22957;50.824;4.360;2023-07-29T08:04:37;23.40;99.90
2391;DHT22;22957;50.824;4.360;2023-07-29T08:07:03;23.80;99.90
2391;DHT22;22957;50.824;4.360;2023-07-29T08:09:28;24.30;99.90
2391;DHT22;22957;50.824;4.360;2023-07-29T08:11:54;25.10;99.90
2391;DHT22;22957;50.824;4.360;2023-07-29T08:14:19;25.10;99.90
2391;DHT22;22957;50.824;4.360;2023-07-29T08:16:45;26.10;99.90
2391;DHT22;22957;50.824;4.360;2023-07-29T08:19:11;26.60;99.90
2391;DHT22;22957;50.824;4.360;2023-07-29T08:21:36;26.60;99.90
2391;DHT22;22957;50.824;4.360;2023-07-29T08:24:02;26.70;99.90
2391;DHT22;22957;50.824;4.360;2023-07-29T08:26:28;27.20;99.90
2391;DHT22;22957;50.824;4.360;2023-07-29T08:28:54;27.20;99.90
2391;DHT22;22957;50.824;4.360;2023-07-29T08:31:20;27.40;99.90
2391;DHT22;22957;50.824;4.360;2023-07-29T08:33:45;27.40;99.90
2391;DHT22;22957;50.824;4.360;2023-07-29T08:36:11;27.90;99.90
2391;DHT22;22957;50.824;4.360;2023-07-29T08:38:36;27.60;99.90
2391;DHT22;22957;50.824;4.360;2023-07-29T08:41:19;27.90;99.90
2391;DHT22;22957;50.824;4.360;2023-07-29T08:43:59;28.50;99.90
2391;DHT22;22957;50.824;4.360;2023-07-29T08:46:28;29.10;99.90
2391;DHT22;22957;50.824;4.360;2023-07-29T08:48:55;29.40;99.90
2391;DHT22;22957;50.824;4.360;2023-07-29T08:51:21;29.10;99.90
2391;DHT22;22957;50.824;4.360;2023-07-29T08:53:49;28.80;99.90
2391;DHT22;22957;50.824;4.360;2023-07-29T08:56:15;28.30;99.90
2391;DHT22;22957;50.824;4.360;2023-07-29T08:58:41;28.40;99.90
2391;DHT22;22957;50.824;4.360;2023-07-29T09:01:07;29.30;99.90
2391;DHT22;22957;50.824;4.360;2023-07-29T09:03:33;29.40;99.90
2391;DHT22;22957;50.824;4.360;2023-07-29T09:05:58;29.80;99.90
2391;DHT22;22957;50.824;4.360;2023-07-29T09:08:26;30.60;99.90
2391;DHT22;22957;50.824;4.360;2023-07-29T09:10:52;30.80;99.90
2391;DHT22;22957;50.824;4.360;2023-07-29T09:13:19;31.50;99.90
2391;DHT22;22957;50.824;4.360;2023-07-29T09:15:45;30.90;99.90
2391;DHT22;22957;50.824;4.360;2023-07-29T09:18:13;30.90;99.90
2391;DHT22;22957;50.824;4.360;2023-07-29T09:20:39;30.90;99.90
2391;DHT22;22957;50.824;4.360;2023-07-29T09:23:08;29.70;99.90
2391;DHT22;22957;50.824;4.360;2023-07-29T09:25:37;29.70;99.90
2391;DHT22;22957;50.824;4.360;2023-07-29T09:28:09;29.40;99.90
2391;DHT22;22957;50.824;4.360;2023-07-29T09:30:35;29.30;99.90
2391;DHT22;22957;50.824;4.360;2023-07-29T09:33:00;29.60;99.90
2391;DHT22;22957;50.824;4.360;2023-07-29T09:35:30;29.80;99.90
2391;DHT22;22957;50.824;4.360;2023-07-29T09:37:57;29.20;99.90
2391;DHT22;22957;50.824;4.360;2023-07-29T09:40:23;28.80;99.90
2391;DHT22;22957;50.824;4.360;2023-07-29T09:42:53;28.50;99.90
2391;DHT22;22957;50.824;4.360;2023-07-29T09:45:26;27.90;99.90
2391;DHT22;22957;50.824;4.360;2023-07-29T09:47:53;27.50;99.90
2391;DHT22;22957;50.824;4.360;2023-07-29T09:50:18;27.20;99.90
2391;DHT22;22957;50.824;4.360;2023-07-29T09:52:45;27.20;99.90
2391;DHT22;22957;50.824;4.360;2023-07-29T09:55:12;26.70;99.90
2391;DHT22;22957;50.824;4.360;2023-07-29T09:57:40;26.80;99.90
2391;DHT22;22957;50.824;4.360;2023-07-29T10:00:06;27.30;99.90
2391;DHT22;22957;50.824;4.360;2023-07-29T10:02:39;27.80;99.90
2391;DHT22;22957;50.824;4.360;2023-07-29T10:05:06;27.60;99.90
2391;DHT22;22957;50.824;4.360;2023-07-29T10:07:34;28.20;99.90
2391;DHT22;22957;50.824;4.360;2023-07-29T10:10:02;28.30;99.90
2391;DHT22;22957;50.824;4.360;2023-07-29T10:12:30;28.70;99.90
2391;DHT22;22957;50.824;4.360;2023-07-29T10:14:59;28.70;99.90
2391;DHT22;22957;50.824;4.360;2023-07-29T10:17:26;29.60;99.90
2391;DHT22;22957;50.824;4.360;2023-07-29T10:19:53;29.40;99.90
2391;DHT22;22957;50.824;4.360;2023-07-29T10:22:21;29.50;99.90
2391;DHT22;22957;50.824;4.360;2023-07-29T10:24:50;28.80;99.90
2391;DHT22;22957;50.824;4.360;2023-07-29T10:27:18;28.40;99.90
2391;DHT22;22957;50.824;4.360;2023-07-29T10:29:45;28.30;99.90
2391;DHT22;22957;50.824;4.360;2023-07-29T10:32:11;27.60;99.90
2391;DHT22;22957;50.824;4.360;2023-07-29T10:34:37;27.00;99.90
2391;DHT22;22957;50.824;4.360;2023-07-29T10:37:04;26.40;99.90
2391;DHT22;22957;50.824;4.360;2023-07-29T10:39:52;26.20;99.90
2391;DHT22;22957;50.824;4.360;2023-07-29T10:42:18;25.80;99.90
2391;DHT22;22957;50.824;4.360;2023-07-29T10:44:47;25.70;99.90
2391;DHT22;22957;50.824;4.360;2023-07-29T10:47:19;25.70;99.90
2391;DHT22;22957;50.824;4.360;2023-07-29T10:49:50;26.00;99.90
2391;DHT22;22957;50.824;4.360;2023-07-29T10:53:12;25.50;99.90
2391;DHT22;22957;50.824;4.360;2023-07-29T10:55:48;25.00;99.90
2391;DHT22;22957;50.824;4.360;2023-07-29T10:58:16;24.60;99.90
2391;DHT22;22957;50.824;4.360;2023-07-29T11:00:44;24.60;99.90
2391;DHT22;22957;50.824;4.360;2023-07-29T11:03:11;24.60;99.90
2391;DHT22;22957;50.824;4.360;2023-07-29T11:05:47;24.40;99.90
2391;DHT22;22957;50.824;4.360;2023-07-29T11:08:18;24.20;99.90
2391;DHT22;22957;50.824;4.360;2023-07-29T11:11:06;23.70;99.90
2391;DHT22;22957;50.824;4.360;2023-07-29T11:13:35;23.60;99.90
2391;DHT22;22957;50.824;4.360;2023-07-29T11:16:01;23.70;99.90
2391;DHT22;22957;50.824;4.360;2023-07-29T11:18:29;23.40;99.90
2391;DHT22;22957;50.824;4.360;2023-07-29T11:20:55;23.90;99.90
2391;DHT22;22957;50.824;4.360;2023-07-29T11:23:30;23.70;99.90
2391;DHT22;22957;50.824;4.360;2023-07-29T11:25:57;23.80;99.90
2391;DHT22;22957;50.824;4.360;2023-07-29T11:28:24;23.70;99.90
2391;DHT22;22957;50.824;4.360;2023-07-29T11:30:50;23.40;99.90
2391;DHT22;22957;50.824;4.360;2023-07-29T11:33:19;23.50;99.90
2391;DHT22;22957;50.824;4.360;2023-07-29T11:35:45;23.50;99.90
2391;DHT22;22957;50.824;4.360;2023-07-29T11:38:15;24.00;99.90
2391;DHT22;22957;50.824;4.360;2023-07-29T11:40:41;24.20;99.90
2391;DHT22;22957;50.824;4.360;2023-07-29T11:43:06;24.20;99.90
2391;DHT22;22957;50.824;4.360;2023-07-29T11:45:33;24.90;99.90
2391;DHT22;22957;50.824;4.360;2023-07-29T11:48:01;25.40;99.90
2391;DHT22;22957;50.824;4.360;2023-07-29T11:50:26;25.60;99.90
2391;DHT22;22957;50.824;4.360;2023-07-29T11:52:52;26.40;99.90
2391;DHT22;22957;50.824;4.360;2023-07-29T11:55:18;27.10;99.90
2391;DHT22;22957;50.824;4.360;2023-07-29T11:57:47;27.30;99.90
2391;DHT22;22957;50.824;4.360;2023-07-29T12:00:15;27.20;99.90
2391;DHT22;22957;50.824;4.360;2023-07-29T12:02:43;27.30;99.90
2391;DHT22;22957;50.824;4.360;2023-07-29T12:05:10;26.40;99.90
2391;DHT22;22957;50.824;4.360;2023-07-29T12:07:42;26.30;99.90
2391;DHT22;22957;50.824;4.360;2023-07-29T12:10:09;26.00;99.90
2391;DHT22;22957;50.824;4.360;2023-07-29T12:12:48;25.40;99.90
2391;DHT22;22957;50.824;4.360;2023-07-29T12:15:26;25.10;99.90
2391;DHT22;22957;50.824;4.360;2023-07-29T12:17:56;24.60;99.90
2391;DHT22;22957;50.824;4.360;2023-07-29T12:20:22;24.40;99.90
2391;DHT22;22957;50.824;4.360;2023-07-29T12:22:56;24.00;99.90
2391;DHT22;22957;50.824;4.360;2023-07-29T12:25:22;23.90;99.90
2391;DHT22;22957;50.824;4.360;2023-07-29T12:27:47;23.80;99.90
2391;DHT22;22957;50.824;4.360;2023-07-29T12:30:13;23.70;99.90
2391;DHT22;22957;50.824;4.360;2023-07-29T12:32:46;23.40;99.90
2391;DHT22;22957;50.824;4.360;2023-07-29T12:35:12;23.30;99.90
2391;DHT22;22957;50.824;4.360;2023-07-29T12:37:38;23.20;99.90
2391;DHT22;22957;50.824;4.360;2023-07-29T12:40:08;23.10;99.90
2391;DHT22;22957;50.824;4.360;2023-07-29T12:42:33;23.20;99.90
2391;DHT22;22957;50.824;4.360;2023-07-29T12:44:59;23.60;99.90
2391;DHT22;22957;50.824;4.360;2023-07-29T12:47:24;23.80;99.90
2391;DHT22;22957;50.824;4.360;2023-07-29T12:49:50;24.30;99.90
2391;DHT22;22957;50.824;4.360;2023-07-29T12:52:16;24.70;99.90
2391;DHT22;22957;50.824;4.360;2023-07-29T12:54:41;25.10;99.90
2391;DHT22;22957;50.824;4.360;2023-07-29T12:57:09;25.50;99.90
2391;DHT22;22957;50.824;4.360;2023-07-29T12:59:35;25.70;99.90
2391;DHT22;22957;50.824;4.360;2023-07-29T13:02:00;26.40;99.90
2391;DHT22;22957;50.824;4.360;2023-07-29T13:04:26;26.60;99.90
2391;DHT22;22957;50.824;4.360;2023-07-29T13:06:51;26.60;99.90
2391;DHT22;22957;50.824;4.360;2023-07-29T13:09:17;27.40;99.90
2391;DHT22;22957;50.824;4.360;2023-07-29T13:11:42;27.70;99.90
2391;DHT22;22957;50.824;4.360;2023-07-29T13:14:08;27.90;99.90
2391;DHT22;22957;50.824;4.360;2023-07-29T13:16:33;27.40;99.90
2391;DHT22;22957;50.824;4.360;2023-07-29T13:18:59;26.80;99.90
2391;DHT22;22957;50.824;4.360;2023-07-29T13:21:25;26.60;99.90
2391;DHT22;22957;50.824;4.360;2023-07-29T13:23:51;26.60;99.90
2391;DHT22;22957;50.824;4.360;2023-07-29T13:26:17;26.50;99.90
2391;DHT22;22957;50.824;4.360;2023-07-29T13:28:42;27.00;99.90
2391;DHT22;22957;50.824;4.360;2023-07-29T13:31:08;27.00;99.90
2391;DHT22;22957;50.824;4.360;2023-07-29T13:33:34;26.70;99.90
2391;DHT22;22957;50.824;4.360;2023-07-29T13:36:02;27.40;99.90
2391;DHT22;22957;50.824;4.360;2023-07-29T13:38:29;27.70;99.90
2391;DHT22;22957;50.824;4.360;2023-07-29T13:40:54;28.10;99.90
2391;DHT22;22957;50.824;4.360;2023-07-29T13:43:20;28.60;99.90
2391;DHT22;22957;50.824;4.360;2023-07-29T13:45:45;28.40;99.90
2391;DHT22;22957;50.824;4.360;2023-07-29T13:48:14;28.10;99.90
2391;DHT22;22957;50.824;4.360;2023-07-29T13:50:39;27.60;99.90
2391;DHT22;22957;50.824;4.360;2023-07-29T13:53:05;27.00;99.90
2391;DHT22;22957;50.824;4.360;2023-07-29T13:55:30;26.60;99.90
2391;DHT22;22957;50.824;4.360;2023-07-29T13:57:56;26.20;99.90
2391;DHT22;22957;50.824;4.360;2023-07-29T14:00:21;26.10;99.90
2391;DHT22;22957;50.824;4.360;2023-07-29T14:02:47;26.10;99.90
2391;DHT22;22957;50.824;4.360;2023-07-29T14:05:13;26.30;99.90
2391;DHT22;22957;50.824;4.360;2023-07-29T14:07:39;26.20;99.90
2391;DHT22;22957;50.824;4.360;2023-07-29T14:10:05;26.60;99.90
2391;DHT22;22957;50.824;4.360;2023-07-29T14:12:31;26.80;99.90
2391;DHT22;22957;50.824;4.360;2023-07-29T14:14:56;26.60;99.90
2391;DHT22;22957;50.824;4.360;2023-07-29T14:17:22;26.20;99.90
2391;DHT22;22957;50.824;4.360;2023-07-29T14:19:47;26.30;99.90
2391;DHT22;22957;50.824;4.360;2023-07-29T14:22:13;26.60;99.90
2391;DHT22;22957;50.824;4.360;2023-07-29T14:24:38;26.70;99.90
2391;DHT22;22957;50.824;4.360;2023-07-29T14:27:04;27.00;99.90
2391;DHT22;22957;50.824;4.360;2023-07-29T14:29:30;27.00;99.90
2391;DHT22;22957;50.824;4.360;2023-07-29T14:31:55;27.10;99.90
2391;DHT22;22957;50.824;4.360;2023-07-29T14:34:21;26.90;99.90
2391;DHT22;22957;50.824;4.360;2023-07-29T14:36:46;26.90;99.90
2391;DHT22;22957;50.824;4.360;2023-07-29T14:39:12;26.90;99.90
2391;DHT22;22957;50.824;4.360;2023-07-29T14:41:37;26.90;99.90
2391;DHT22;22957;50.824;4.360;2023-07-29T14:44:03;26.80;99.90
2391;DHT22;22957;50.824;4.360;2023-07-29T14:46:29;27.30;99.90
2391;DHT22;22957;50.824;4.360;2023-07-29T14:48:54;27.20;99.90
2391;DHT22;22957;50.824;4.360;2023-07-29T14:51:20;26.90;99.90
2391;DHT22;22957;50.824;4.360;2023-07-29T14:53:45;27.00;99.90
2391;DHT22;22957;50.824;4.360;2023-07-29T14:56:11;27.30;99.90
2391;DHT22;22957;50.824;4.360;2023-07-29T14:58:39;26.80;99.90
2391;DHT22;22957;50.824;4.360;2023-07-29T15:01:04;26.60;99.90
2391;DHT22;22957;50.824;4.360;2023-07-29T15:03:30;26.70;99.90
2391;DHT22;22957;50.824;4.360;2023-07-29T15:05:55;26.60;99.90
2391;DHT22;22957;50.824;4.360;2023-07-29T15:08:21;27.20;99.90
2391;DHT22;22957;50.824;4.360;2023-07-29T15:10:47;27.00;99.90
2391;DHT22;22957;50.824;4.360;2023-07-29T15:13:13;26.80;99.90
2391;DHT22;22957;50.824;4.360;2023-07-29T15:15:41;26.40;99.90
2391;DHT22;22957;50.824;4.360;2023-07-29T15:18:07;26.10;99.90
2391;DHT22;22957;50.824;4.360;2023-07-29T15:20:32;26.60;99.90
2391;DHT22;22957;50.824;4.360;2023-07-29T15:22:58;26.60;99.90
2391;DHT22;22957;50.824;4.360;2023-07-29T15:25:23;26.00;99.90
2391;DHT22;22957;50.824;4.360;2023-07-29T15:27:49;26.30;99.90
2391;DHT22;22957;50.824;4.360;2023-07-29T15:30:14;26.50;99.90
2391;DHT22;22957;50.824;4.360;2023-07-29T15:32:40;26.50;99.90
2391;DHT22;22957;50.824;4.360;2023-07-29T15:35:07;26.20;99.90
2391;DHT22;22957;50.824;4.360;2023-07-29T15:37:33;26.20;99.90
2391;DHT22;22957;50.824;4.360;2023-07-29T15:39:58;26.40;99.90
2391;DHT22;22957;50.824;4.360;2023-07-29T15:42:24;26.10;99.90
2391;DHT22;22957;50.824;4.360;2023-07-29T15:44:50;25.50;99.90
2391;DHT22;22957;50.824;4.360;2023-07-29T15:47:16;25.80;99.90